sensor_id;sensor_type;location;lat;lon;timestamp;pressure;altitude;pressure_sealevel;temperature;humidity
50364;BME280;36272;59.400;17.982;2023-08-17T00:03:14;101792.31;;;19.72;76.24
50364;BME280;36272;59.400;17.982;2023-08-17T00:08:15;101799.06;;;19.65;76.64
50364;BME280;36272;59.400;17.982;2023-08-17T00:13:17;101786.75;;;19.57;76.95
50364;BME280;36272;59.400;17.982;2023-08-17T00:18:19;101791.06;;;19.53;77.07
50364;BME280;36272;59.400;17.982;2023-08-17T00:23:20;101795.06;;;19.45;76.94
50364;BME280;36272;59.400;17.982;2023-08-17T00:28:22;101798.22;;;19.37;77.59
50364;BME280;36272;59.400;17.982;2023-08-17T00:33:24;101792.44;;;19.28;77.62
50364;BME280;36272;59.400;17.982;2023-08-17T00:38:25;101795.34;;;19.21;78.24
50364;BME280;36272;59.400;17.982;2023-08-17T00:43:27;101796.63;;;19.13;78.26
50364;BME280;36272;59.400;17.982;2023-08-17T00:48:29;101785.72;;;19.08;78.63
50364;BME280;36272;59.400;17.982;2023-08-17T00:53:31;101785.06;;;19.01;78.82
50364;BME280;36272;59.400;17.982;2023-08-17T00:58:33;101793.97;;;18.96;79.23
50364;BME280;36272;59.400;17.982;2023-08-17T01:03:35;101802.28;;;18.90;79.41
50364;BME280;36272;59.400;17.982;2023-08-17T01:08:37;101806.81;;;18.84;79.58
50364;BME280;36272;59.400;17.982;2023-08-17T01:14:05;101794.81;;;18.80;80.10
50364;BME280;36272;59.400;17.982;2023-08-17T01:19:12;101795.88;;;18.79;79.92
50364;BME280;36272;59.400;17.982;2023-08-17T01:24:19;101824.06;;;18.78;80.20
50364;BME280;36272;59.400;17.982;2023-08-17T01:29:20;101821.91;;;18.80;80.21
50364;BME280;36272;59.400;17.982;2023-08-17T01:34:24;101817.06;;;18.82;80.50
50364;BME280;36272;59.400;17.982;2023-08-17T01:39:31;101815.19;;;18.82;80.67
50364;BME280;36272;59.400;17.982;2023-08-17T01:44:36;101832.03;;;18.84;80.64
50364;BME280;36272;59.400;17.982;2023-08-17T01:49:38;101842.59;;;18.86;80.94
50364;BME280;36272;59.400;17.982;2023-08-17T01:54:39;101837.19;;;18.86;80.83
50364;BME280;36272;59.400;17.982;2023-08-17T01:59:41;101848.53;;;18.83;81.10
50364;BME280;36272;59.400;17.982;2023-08-17T02:04:42;101850.66;;;18.81;81.21
50364;BME280;36272;59.400;17.982;2023-08-17T02:09:44;101864.22;;;18.81;81.31
50364;BME280;36272;59.400;17.982;2023-08-17T02:14:46;101858.47;;;18.77;81.85
50364;BME280;36272;59.400;17.982;2023-08-17T02:19:47;101867.09;;;18.74;81.87
50364;BME280;36272;59.400;17.982;2023-08-17T02:24:49;101882.00;;;18.71;81.92
50364;BME280;36272;59.400;17.982;2023-08-17T02:29:51;101865.66;;;18.66;81.92
50364;BME280;36272;59.400;17.982;2023-08-17T02:34:53;101872.63;;;18.62;82.14
50364;BME280;36272;59.400;17.982;2023-08-17T02:39:55;101882.81;;;18.55;82.42
50364;BME280;36272;59.400;17.982;2023-08-17T02:44:56;101893.56;;;18.50;82.88
50364;BME280;36272;59.400;17.982;2023-08-17T02:49:58;101895.38;;;18.44;82.75
50364;BME280;36272;59.400;17.982;2023-08-17T02:54:59;101906.38;;;18.37;83.22
50364;BME280;36272;59.400;17.982;2023-08-17T03:00:01;101904.41;;;18.33;83.29
50364;BME280;36272;59.400;17.982;2023-08-17T03:05:03;101908.44;;;18.30;83.68
50364;BME280;36272;59.400;17.982;2023-08-17T03:10:05;101915.50;;;18.31;83.92
50364;BME280;36272;59.400;17.982;2023-08-17T03:15:07;101917.38;;;18.31;83.84
50364;BME280;36272;59.400;17.982;2023-08-17T03:20:09;101915.50;;;18.31;83.84
50364;BME280;36272;59.400;17.982;2023-08-17T03:25:10;101934.44;;;18.31;84.35
50364;BME280;36272;59.400;17.982;2023-08-17T03:30:12;101932.28;;;18.33;84.15
50364;BME280;36272;59.400;17.982;2023-08-17T03:35:14;101940.09;;;18.30;84.29
50364;BME280;36272;59.400;17.982;2023-08-17T03:40:15;101938.72;;;18.27;84.65
50364;BME280;36272;59.400;17.982;2023-08-17T03:45:18;101936.22;;;18.25;84.92
50364;BME280;36272;59.400;17.982;2023-08-17T03:50:19;101958.47;;;18.27;84.79
50364;BME280;36272;59.400;17.982;2023-08-17T03:55:21;101957.66;;;18.27;84.87
50364;BME280;36272;59.400;17.982;2023-08-17T04:00:23;101965.31;;;18.30;85.35
50364;BME280;36272;59.400;17.982;2023-08-17T04:05:24;101965.88;;;18.32;85.27
50364;BME280;36272;59.400;17.982;2023-08-17T04:10:26;101961.53;;;18.31;85.44
50364;BME280;36272;59.400;17.982;2023-08-17T04:15:27;101971.03;;;18.34;85.20
50364;BME280;36272;59.400;17.982;2023-08-17T04:20:29;101969.72;;;18.36;85.45
50364;BME280;36272;59.400;17.982;2023-08-17T04:25:30;101971.34;;;18.37;85.06
50364;BME280;36272;59.400;17.982;2023-08-17T04:30:32;101982.44;;;18.36;84.91
50364;BME280;36272;59.400;17.982;2023-08-17T04:35:34;101988.66;;;18.36;84.68
50364;BME280;36272;59.400;17.982;2023-08-17T04:40:35;101995.72;;;18.37;84.71
50364;BME280;36272;59.400;17.982;2023-08-17T04:45:37;101983.34;;;18.41;84.61
50364;BME280;36272;59.400;17.982;2023-08-17T04:50:39;101979.00;;;18.40;84.20
50364;BME280;36272;59.400;17.982;2023-08-17T04:55:41;101991.00;;;18.45;84.33
50364;BME280;36272;59.400;17.982;2023-08-17T05:00:42;101996.97;;;18.47;84.45
50364;BME280;36272;59.400;17.982;2023-08-17T05:05:44;102007.34;;;18.50;84.24
50364;BME280;36272;59.400;17.982;2023-08-17T05:10:46;102005.78;;;18.54;83.90
50364;BME280;36272;59.400;17.982;2023-08-17T05:15:47;102012.44;;;18.63;83.65
50364;BME280;36272;59.400;17.982;2023-08-17T05:20:49;102022.94;;;18.77;83.17
50364;BME280;36272;59.400;17.982;2023-08-17T05:25:51;102023.19;;;18.92;82.81
50364;BME280;36272;59.400;17.982;2023-08-17T05:30:53;102031.63;;;19.08;82.39
50364;BME280;36272;59.400;17.982;2023-08-17T05:35:55;102031.59;;;19.25;81.92
50364;BME280;36272;59.400;17.982;2023-08-17T05:40:57;102035.34;;;19.41;81.37
50364;BME280;36272;59.400;17.982;2023-08-17T05:45:59;102047.47;;;19.55;80.49
50364;BME280;36272;59.400;17.982;2023-08-17T05:51:01;102055.22;;;19.69;80.24
50364;BME280;36272;59.400;17.982;2023-08-17T05:56:03;102054.06;;;19.82;79.00
50364;BME280;36272;59.400;17.982;2023-08-17T06:01:09;102045.75;;;19.88;78.82
50364;BME280;36272;59.400;17.982;2023-08-17T06:06:11;102072.53;;;20.02;78.10
50364;BME280;36272;59.400;17.982;2023-08-17T06:11:12;102066.94;;;20.14;77.79
50364;BME280;36272;59.400;17.982;2023-08-17T06:16:14;102074.38;;;20.24;76.86
50364;BME280;36272;59.400;17.982;2023-08-17T06:21:16;102083.44;;;20.29;76.34
50364;BME280;36272;59.400;17.982;2023-08-17T06:26:17;102098.50;;;20.42;75.62
50364;BME280;36272;59.400;17.982;2023-08-17T06:31:19;102096.44;;;20.55;74.96
50364;BME280;36272;59.400;17.982;2023-08-17T06:36:21;102102.53;;;20.67;74.10
50364;BME280;36272;59.400;17.982;2023-08-17T06:41:23;102109.75;;;20.78;73.88
50364;BME280;36272;59.400;17.982;2023-08-17T06:46:26;102112.00;;;20.87;73.16
50364;BME280;36272;59.400;17.982;2023-08-17T06:51:29;102112.09;;;20.97;72.27
50364;BME280;36272;59.400;17.982;2023-08-17T06:56:30;102117.88;;;21.06;72.09
50364;BME280;36272;59.400;17.982;2023-08-17T07:01:32;102121.44;;;21.12;71.22
50364;BME280;36272;59.400;17.982;2023-08-17T07:06:34;102118.25;;;21.20;70.96
50364;BME280;36272;59.400;17.982;2023-08-17T07:11:36;102133.88;;;21.35;70.53
50364;BME280;36272;59.400;17.982;2023-08-17T07:16:37;102138.56;;;21.45;69.96
50364;BME280;36272;59.400;17.982;2023-08-17T07:21:39;102131.59;;;21.59;69.72
50364;BME280;36272;59.400;17.982;2023-08-17T07:26:41;102137.41;;;21.73;69.45
50364;BME280;36272;59.400;17.982;2023-08-17T07:31:43;102135.81;;;21.82;69.30
50364;BME280;36272;59.400;17.982;2023-08-17T07:36:45;102144.06;;;21.93;68.89
50364;BME280;36272;59.400;17.982;2023-08-17T07:41:47;102152.00;;;22.05;68.43
50364;BME280;36272;59.400;17.982;2023-08-17T07:46:48;102151.50;;;22.13;68.38
50364;BME280;36272;59.400;17.982;2023-08-17T07:51:50;102151.78;;;22.17;67.99
50364;BME280;36272;59.400;17.982;2023-08-17T07:56:51;102154.50;;;22.17;67.78
50364;BME280;36272;59.400;17.982;2023-08-17T08:01:53;102160.22;;;22.15;67.88
50364;BME280;36272;59.400;17.982;2023-08-17T08:06:55;102151.19;;;22.09;67.76
50364;BME280;36272;59.400;17.982;2023-08-17T08:11:56;102161.84;;;22.11;67.42
50364;BME280;36272;59.400;17.982;2023-08-17T08:16:58;102175.75;;;22.20;67.25
50364;BME280;36272;59.400;17.982;2023-08-17T08:21:59;102171.75;;;22.38;66.75
50364;BME280;36272;59.400;17.982;2023-08-17T08:27:02;102175.09;;;22.55;66.29
50364;BME280;36272;59.400;17.982;2023-08-17T08:32:04;102186.59;;;22.83;65.69
50364;BME280;36272;59.400;17.982;2023-08-17T08:37:06;102196.75;;;23.14;65.08
50364;BME280;36272;59.400;17.982;2023-08-17T08:42:07;102198.38;;;23.20;64.64
50364;BME280;36272;59.400;17.982;2023-08-17T08:47:09;102186.66;;;23.14;64.42
50364;BME280;36272;59.400;17.982;2023-08-17T08:52:14;102185.03;;;23.08;64.56
50364;BME280;36272;59.400;17.982;2023-08-17T08:57:18;102212.31;;;23.08;64.63
50364;BME280;36272;59.400;17.982;2023-08-17T09:02:20;102212.28;;;23.03;64.97
50364;BME280;36272;59.400;17.982;2023-08-17T09:07:22;102202.72;;;23.06;64.99
50364;BME280;36272;59.400;17.982;2023-08-17T09:12:24;102202.75;;;23.16;64.95
50364;BME280;36272;59.400;17.982;2023-08-17T09:17:26;102213.72;;;23.31;63.84
50364;BME280;36272;59.400;17.982;2023-08-17T09:22:42;102202.22;;;23.50;64.49
50364;BME280;36272;59.400;17.982;2023-08-17T09:27:44;102224.06;;;23.76;63.32
50364;BME280;36272;59.400;17.982;2023-08-17T09:32:47;102212.81;;;23.88;62.96
50364;BME280;36272;59.400;17.982;2023-08-17T09:37:49;102213.91;;;23.92;62.77
50364;BME280;36272;59.400;17.982;2023-08-17T09:42:52;102225.63;;;23.98;62.50
50364;BME280;36272;59.400;17.982;2023-08-17T09:47:57;102217.69;;;24.12;62.09
50364;BME280;36272;59.400;17.982;2023-08-17T09:52:59;102222.59;;;24.15;61.96
50364;BME280;36272;59.400;17.982;2023-08-17T09:58:02;102219.09;;;24.09;62.04
50364;BME280;36272;59.400;17.982;2023-08-17T10:03:04;102225.91;;;24.06;62.25
50364;BME280;36272;59.400;17.982;2023-08-17T10:08:07;102221.50;;;24.21;61.92
50364;BME280;36272;59.400;17.982;2023-08-17T10:13:10;102215.97;;;24.42;61.55
50364;BME280;36272;59.400;17.982;2023-08-17T10:18:28;102215.97;;;24.42;61.07
50364;BME280;36272;59.400;17.982;2023-08-17T10:23:33;102242.75;;;24.45;60.78
50364;BME280;36272;59.400;17.982;2023-08-17T10:28:36;102245.97;;;24.52;60.60
50364;BME280;36272;59.400;17.982;2023-08-17T10:33:39;102235.72;;;24.84;61.50
50364;BME280;36272;59.400;17.982;2023-08-17T10:38:43;102244.41;;;25.36;60.20
50364;BME280;36272;59.400;17.982;2023-08-17T10:43:57;102239.81;;;25.61;59.03
50364;BME280;36272;59.400;17.982;2023-08-17T10:49:06;102231.91;;;25.59;59.44
50364;BME280;36272;59.400;17.982;2023-08-17T10:54:08;102254.63;;;25.60;59.00
50364;BME280;36272;59.400;17.982;2023-08-17T10:59:24;102237.84;;;25.66;58.47
50364;BME280;36272;59.400;17.982;2023-08-17T11:04:32;102231.53;;;25.95;58.34
50364;BME280;36272;59.400;17.982;2023-08-17T11:09:35;102241.63;;;26.49;57.13
50364;BME280;36272;59.400;17.982;2023-08-17T11:14:37;102252.78;;;26.96;56.12
50364;BME280;36272;59.400;17.982;2023-08-17T11:19:39;102243.94;;;27.70;54.88
50364;BME280;36272;59.400;17.982;2023-08-17T11:24:41;102253.34;;;30.48;50.41
50364;BME280;36272;59.400;17.982;2023-08-17T11:29:44;102245.06;;;33.74;46.13
50364;BME280;36272;59.400;17.982;2023-08-17T11:34:46;102248.91;;;36.65;42.22
50364;BME280;36272;59.400;17.982;2023-08-17T11:39:48;102255.28;;;38.56;40.16
50364;BME280;36272;59.400;17.982;2023-08-17T11:44:50;102248.53;;;37.06;41.45
50364;BME280;36272;59.400;17.982;2023-08-17T11:49:59;102241.44;;;36.50;42.05
50364;BME280;36272;59.400;17.982;2023-08-17T11:55:00;102260.28;;;39.49;37.63
50364;BME280;36272;59.400;17.982;2023-08-17T12:00:04;102247.50;;;41.65;35.29
50364;BME280;36272;59.400;17.982;2023-08-17T12:05:13;102272.31;;;43.51;33.31
50364;BME280;36272;59.400;17.982;2023-08-17T12:10:15;102266.69;;;44.90;31.98
50364;BME280;36272;59.400;17.982;2023-08-17T12:15:18;102268.22;;;46.30;31.09
50364;BME280;36272;59.400;17.982;2023-08-17T12:20:25;102260.97;;;47.65;29.96
50364;BME280;36272;59.400;17.982;2023-08-17T12:25:27;102255.06;;;48.58;28.85
50364;BME280;36272;59.400;17.982;2023-08-17T12:30:31;102257.28;;;46.32;30.69
50364;BME280;36272;59.400;17.982;2023-08-17T12:35:33;102267.16;;;43.46;32.72
50364;BME280;36272;59.400;17.982;2023-08-17T12:40:35;102275.53;;;41.39;34.42
50364;BME280;36272;59.400;17.982;2023-08-17T12:45:37;102260.69;;;41.97;34.16
50364;BME280;36272;59.400;17.982;2023-08-17T12:50:38;102256.47;;;44.73;31.33
50364;BME280;36272;59.400;17.982;2023-08-17T12:55:40;102257.63;;;46.71;28.88
50364;BME280;36272;59.400;17.982;2023-08-17T13:00:42;102263.34;;;47.97;27.69
50364;BME280;36272;59.400;17.982;2023-08-17T13:05:43;102261.31;;;48.78;27.15
50364;BME280;36272;59.400;17.982;2023-08-17T13:10:45;102262.38;;;49.07;27.36
50364;BME280;36272;59.400;17.982;2023-08-17T13:15:46;102257.41;;;49.68;26.49
50364;BME280;36272;59.400;17.982;2023-08-17T13:20:48;102273.97;;;50.37;25.93
50364;BME280;36272;59.400;17.982;2023-08-17T13:25:50;102269.97;;;49.58;26.80
50364;BME280;36272;59.400;17.982;2023-08-17T13:30:51;102282.09;;;46.61;28.88
50364;BME280;36272;59.400;17.982;2023-08-17T13:35:53;102284.34;;;43.97;30.52
50364;BME280;36272;59.400;17.982;2023-08-17T13:40:55;102294.00;;;41.98;31.72
50364;BME280;36272;59.400;17.982;2023-08-17T13:45:57;102283.06;;;40.88;32.83
50364;BME280;36272;59.400;17.982;2023-08-17T13:50:59;102285.97;;;40.18;33.29
50364;BME280;36272;59.400;17.982;2023-08-17T13:56:01;102277.84;;;40.02;33.61
50364;BME280;36272;59.400;17.982;2023-08-17T14:01:02;102285.00;;;40.69;32.95
50364;BME280;36272;59.400;17.982;2023-08-17T14:06:04;102270.88;;;42.65;31.78
50364;BME280;36272;59.400;17.982;2023-08-17T14:11:05;102278.97;;;43.19;31.32
50364;BME280;36272;59.400;17.982;2023-08-17T14:16:08;102287.59;;;41.65;32.16
50364;BME280;36272;59.400;17.982;2023-08-17T14:21:09;102284.63;;;39.97;33.09
50364;BME280;36272;59.400;17.982;2023-08-17T14:26:11;102290.94;;;39.00;34.54
50364;BME280;36272;59.400;17.982;2023-08-17T14:31:13;102288.63;;;39.09;34.68
50364;BME280;36272;59.400;17.982;2023-08-17T14:36:18;102299.03;;;38.44;35.53
50364;BME280;36272;59.400;17.982;2023-08-17T14:41:25;102283.00;;;37.41;36.36
50364;BME280;36272;59.400;17.982;2023-08-17T14:46:32;102302.69;;;36.50;37.49
50364;BME280;36272;59.400;17.982;2023-08-17T14:51:38;102283.75;;;35.87;38.42
50364;BME280;36272;59.400;17.982;2023-08-17T14:56:40;102296.53;;;35.44;39.38
50364;BME280;36272;59.400;17.982;2023-08-17T15:01:42;102295.81;;;35.03;39.73
50364;BME280;36272;59.400;17.982;2023-08-17T15:06:43;102290.03;;;34.95;39.89
50364;BME280;36272;59.400;17.982;2023-08-17T15:11:45;102298.69;;;35.06;39.65
50364;BME280;36272;59.400;17.982;2023-08-17T15:16:47;102290.38;;;34.94;40.32
50364;BME280;36272;59.400;17.982;2023-08-17T15:21:48;102295.63;;;34.83;40.05
50364;BME280;36272;59.400;17.982;2023-08-17T15:26:50;102294.09;;;34.45;40.49
50364;BME280;36272;59.400;17.982;2023-08-17T15:31:52;102295.50;;;34.14;40.98
50364;BME280;36272;59.400;17.982;2023-08-17T15:36:53;102297.75;;;33.87;41.33
50364;BME280;36272;59.400;17.982;2023-08-17T15:41:56;102292.31;;;33.53;41.73
50364;BME280;36272;59.400;17.982;2023-08-17T15:46:58;102305.59;;;33.05;42.36
50364;BME280;36272;59.400;17.982;2023-08-17T15:52:00;102303.69;;;32.54;43.68
50364;BME280;36272;59.400;17.982;2023-08-17T15:57:02;102311.72;;;32.08;44.78
50364;BME280;36272;59.400;17.982;2023-08-17T16:02:04;102309.72;;;31.61;45.68
50364;BME280;36272;59.400;17.982;2023-08-17T16:07:05;102322.13;;;31.11;46.29
50364;BME280;36272;59.400;17.982;2023-08-17T16:12:08;102305.06;;;30.65;46.79
50364;BME280;36272;59.400;17.982;2023-08-17T16:17:10;102332.69;;;30.24;47.59
50364;BME280;36272;59.400;17.982;2023-08-17T16:22:12;102340.78;;;29.66;48.27
50364;BME280;36272;59.400;17.982;2023-08-17T16:27:13;102344.75;;;29.15;49.72
50364;BME280;36272;59.400;17.982;2023-08-17T16:32:15;102349.31;;;28.83;49.87
50364;BME280;36272;59.400;17.982;2023-08-17T16:37:16;102351.66;;;28.47;50.64
50364;BME280;36272;59.400;17.982;2023-08-17T16:42:19;102348.34;;;28.17;51.12
50364;BME280;36272;59.400;17.982;2023-08-17T16:47:21;102357.06;;;27.92;51.97
50364;BME280;36272;59.400;17.982;2023-08-17T16:52:27;102359.16;;;27.61;52.00
50364;BME280;36272;59.400;17.982;2023-08-17T16:57:28;102369.44;;;27.37;52.40
50364;BME280;36272;59.400;17.982;2023-08-17T17:02:30;102379.09;;;27.15;53.01
50364;BME280;36272;59.400;17.982;2023-08-17T17:07:32;102372.59;;;26.86;53.49
50364;BME280;36272;59.400;17.982;2023-08-17T17:12:33;102385.97;;;26.64;53.80
50364;BME280;36272;59.400;17.982;2023-08-17T17:17:35;102393.97;;;26.36;54.47
50364;BME280;36272;59.400;17.982;2023-08-17T17:22:36;102391.94;;;26.17;55.15
50364;BME280;36272;59.400;17.982;2023-08-17T17:27:38;102397.28;;;25.98;55.15
50364;BME280;36272;59.400;17.982;2023-08-17T17:32:41;102400.44;;;25.81;55.71
50364;BME280;36272;59.400;17.982;2023-08-17T17:37:42;102396.75;;;25.61;55.86
50364;BME280;36272;59.400;17.982;2023-08-17T17:42:44;102393.03;;;25.47;55.99
50364;BME280;36272;59.400;17.982;2023-08-17T17:47:45;102405.44;;;25.23;56.72
50364;BME280;36272;59.400;17.982;2023-08-17T17:52:47;102407.19;;;24.99;57.18
50364;BME280;36272;59.400;17.982;2023-08-17T17:57:49;102405.34;;;24.73;57.54
50364;BME280;36272;59.400;17.982;2023-08-17T18:02:50;102410.03;;;24.52;58.08
50364;BME280;36272;59.400;17.982;2023-08-17T18:07:52;102402.66;;;24.32;58.48
50364;BME280;36272;59.400;17.982;2023-08-17T18:12:53;102410.63;;;24.13;58.86
50364;BME280;36272;59.400;17.982;2023-08-17T18:17:55;102409.22;;;23.95;59.56
50364;BME280;36272;59.400;17.982;2023-08-17T18:22:57;102415.22;;;23.76;60.08
50364;BME280;36272;59.400;17.982;2023-08-17T18:27:59;102424.75;;;23.58;60.30
50364;BME280;36272;59.400;17.982;2023-08-17T18:33:01;102430.97;;;23.43;61.11
50364;BME280;36272;59.400;17.982;2023-08-17T18:38:02;102422.19;;;23.25;61.33
50364;BME280;36272;59.400;17.982;2023-08-17T18:43:04;102439.31;;;23.10;61.77
50364;BME280;36272;59.400;17.982;2023-08-17T18:48:06;102445.22;;;22.97;62.22
50364;BME280;36272;59.400;17.982;2023-08-17T18:53:07;102445.44;;;22.85;62.54
50364;BME280;36272;59.400;17.982;2023-08-17T18:58:09;102438.56;;;22.72;63.11
50364;BME280;36272;59.400;17.982;2023-08-17T19:03:11;102460.81;;;22.58;63.12
50364;BME280;36272;59.400;17.982;2023-08-17T19:08:13;102454.72;;;22.46;63.62
50364;BME280;36272;59.400;17.982;2023-08-17T19:13:14;102456.75;;;22.34;64.04
50364;BME280;36272;59.400;17.982;2023-08-17T19:18:16;102455.31;;;22.21;64.53
50364;BME280;36272;59.400;17.982;2023-08-17T19:23:18;102470.97;;;22.08;64.70
50364;BME280;36272;59.400;17.982;2023-08-17T19:28:19;102483.69;;;21.97;65.05
50364;BME280;36272;59.400;17.982;2023-08-17T19:33:21;102473.47;;;21.82;64.71
50364;BME280;36272;59.400;17.982;2023-08-17T19:38:23;102470.31;;;21.68;64.41
50364;BME280;36272;59.400;17.982;2023-08-17T19:43:24;102487.00;;;21.55;64.21
50364;BME280;36272;59.400;17.982;2023-08-17T19:48:26;102491.75;;;21.43;64.18
50364;BME280;36272;59.400;17.982;2023-08-17T19:53:27;102505.25;;;21.32;64.56
50364;BME280;36272;59.400;17.982;2023-08-17T19:58:29;102509.69;;;21.21;64.82
50364;BME280;36272;59.400;17.982;2023-08-17T20:03:31;102503.31;;;21.10;64.48
50364;BME280;36272;59.400;17.982;2023-08-17T20:08:32;102494.41;;;20.98;64.21
50364;BME280;36272;59.400;17.982;2023-08-17T20:13:34;102489.66;;;20.88;64.13
50364;BME280;36272;59.400;17.982;2023-08-17T20:18:35;102496.59;;;20.79;64.25
50364;BME280;36272;59.400;17.982;2023-08-17T20:23:37;102502.34;;;20.65;64.38
50364;BME280;36272;59.400;17.982;2023-08-17T20:28:39;102504.06;;;20.55;64.69
50364;BME280;36272;59.400;17.982;2023-08-17T20:33:40;102506.63;;;20.44;64.84
50364;BME280;36272;59.400;17.982;2023-08-17T20:38:42;102513.53;;;20.35;65.16
50364;BME280;36272;59.400;17.982;2023-08-17T20:43:44;102511.47;;;20.25;65.23
50364;BME280;36272;59.400;17.982;2023-08-17T20:48:46;102514.31;;;20.18;65.49
50364;BME280;36272;59.400;17.982;2023-08-17T20:53:47;102520.13;;;20.10;65.50
50364;BME280;36272;59.400;17.982;2023-08-17T20:58:49;102519.97;;;20.00;65.91
50364;BME280;36272;59.400;17.982;2023-08-17T21:03:51;102520.34;;;19.91;66.01
50364;BME280;36272;59.400;17.982;2023-08-17T21:08:52;102526.97;;;19.84;66.37
50364;BME280;36272;59.400;17.982;2023-08-17T21:13:54;102527.56;;;19.74;66.43
50364;BME280;36272;59.400;17.982;2023-08-17T21:18:55;102523.59;;;19.65;66.58
50364;BME280;36272;59.400;17.982;2023-08-17T21:24:00;102525.59;;;19.57;66.86
50364;BME280;36272;59.400;17.982;2023-08-17T21:29:02;102519.13;;;19.46;67.44
50364;BME280;36272;59.400;17.982;2023-08-17T21:34:04;102522.81;;;19.40;67.68
50364;BME280;36272;59.400;17.982;2023-08-17T21:39:05;102530.47;;;19.31;67.96
50364;BME280;36272;59.400;17.982;2023-08-17T21:44:07;102538.72;;;19.25;68.05
50364;BME280;36272;59.400;17.982;2023-08-17T21:49:08;102531.19;;;19.15;68.18
50364;BME280;36272;59.400;17.982;2023-08-17T21:54:10;102529.06;;;19.05;68.27
50364;BME280;36272;59.400;17.982;2023-08-17T21:59:12;102534.59;;;18.98;68.43
50364;BME280;36272;59.400;17.982;2023-08-17T22:04:14;102537.63;;;18.90;68.59
50364;BME280;36272;59.400;17.982;2023-08-17T22:09:15;102531.50;;;18.83;68.70
50364;BME280;36272;59.400;17.982;2023-08-17T22:14:17;102547.88;;;18.76;69.00
50364;BME280;36272;59.400;17.982;2023-08-17T22:19:19;102545.28;;;18.69;69.17
50364;BME280;36272;59.400;17.982;2023-08-17T22:24:20;102537.47;;;18.61;69.32
50364;BME280;36272;59.400;17.982;2023-08-17T22:29:22;102538.41;;;18.55;69.72
50364;BME280;36272;59.400;17.982;2023-08-17T22:34:23;102543.94;;;18.48;69.90
50364;BME280;36272;59.400;17.982;2023-08-17T22:39:25;102528.81;;;18.40;70.49
50364;BME280;36272;59.400;17.982;2023-08-17T22:44:27;102534.09;;;18.35;70.74
50364;BME280;36272;59.400;17.982;2023-08-17T22:49:30;102521.50;;;18.29;70.93
50364;BME280;36272;59.400;17.982;2023-08-17T22:54:31;102539.25;;;18.25;71.16
50364;BME280;36272;59.400;17.982;2023-08-17T22:59:33;102535.34;;;18.21;71.34
50364;BME280;36272;59.400;17.982;2023-08-17T23:04:35;102528.16;;;18.15;71.25
50364;BME280;36272;59.400;17.982;2023-08-17T23:09:36;102539.91;;;18.08;71.41
50364;BME280;36272;59.400;17.982;2023-08-17T23:14:38;102536.44;;;18.01;71.62
50364;BME280;36272;59.400;17.982;2023-08-17T23:19:39;102531.91;;;17.95;72.13
50364;BME280;36272;59.400;17.982;2023-08-17T23:24:41;102530.09;;;17.89;72.38
50364;BME280;36272;59.400;17.982;2023-08-17T23:29:43;102533.75;;;17.82;72.67
50364;BME280;36272;59.400;17.982;2023-08-17T23:34:44;102547.94;;;17.78;72.86
50364;BME280;36272;59.400;17.982;2023-08-17T23:39:46;102545.69;;;17.75;72.97
50364;BME280;36272;59.400;17.982;2023-08-17T23:44:47;102533.28;;;17.67;73.22
50364;BME280;36272;59.400;17.982;2023-08-17T23:49:49;102543.16;;;17.61;73.62
50364;BME280;36272;59.400;17.982;2023-08-17T23:54:50;102542.75;;;17.58;73.85
50364;BME280;36272;59.400;17.982;2023-08-17T23:59:52;102549.06;;;17.51;74.10
